sensor_id;sensor_type;location;lat;lon;timestamp;P1;durP1;ratioP1;P2;durP2;ratioP2
62332;SDS011;48624;49.812;8.562;2023-09-19T00:00:34;4.07;;;1.10;;
62332;SDS011;48624;49.812;8.562;2023-09-19T00:03:00;2.58;;;1.50;;
62332;SDS011;48624;49.812;8.562;2023-09-19T00:05:29;2.42;;;1.10;;
62332;SDS011;48624;49.812;8.562;2023-09-19T00:07:59;4.55;;;1.15;;
62332;SDS011;48624;49.812;8.562;2023-09-19T00:10:25;2.65;;;1.15;;
62332;SDS011;48624;49.812;8.562;2023-09-19T00:12:55;2.05;;;1.42;;
62332;SDS011;48624;49.812;8.562;2023-09-19T00:15:24;3.17;;;0.77;;
62332;SDS011;48624;49.812;8.562;2023-09-19T00:17:51;4.72;;;1.67;;
62332;SDS011;48624;49.812;8.562;2023-09-19T00:20:17;4.22;;;1.25;;
62332;SDS011;48624;49.812;8.562;2023-09-19T00:22:43;3.40;;;1.30;;
62332;SDS011;48624;49.812;8.562;2023-09-19T00:25:09;2.40;;;1.00;;
62332;SDS011;48624;49.812;8.562;2023-09-19T00:27:36;4.78;;;1.25;;
62332;SDS011;48624;49.812;8.562;2023-09-19T00:30:05;3.75;;;2.03;;
62332;SDS011;48624;49.812;8.562;2023-09-19T00:32:33;3.58;;;1.40;;
62332;SDS011;48624;49.812;8.562;2023-09-19T00:34:58;2.55;;;1.17;;
62332;SDS011;48624;49.812;8.562;2023-09-19T00:37:23;5.90;;;1.10;;
62332;SDS011;48624;49.812;8.562;2023-09-19T00:39:49;3.92;;;1.73;;
62332;SDS011;48624;49.812;8.562;2023-09-19T00:42:20;2.55;;;1.20;;
62332;SDS011;48624;49.812;8.562;2023-09-19T00:44:46;3.17;;;1.40;;
62332;SDS011;48624;49.812;8.562;2023-09-19T00:47:11;4.82;;;1.40;;
62332;SDS011;48624;49.812;8.562;2023-09-19T00:49:41;2.13;;;0.90;;
62332;SDS011;48624;49.812;8.562;2023-09-19T00:52:07;3.78;;;1.60;;
62332;SDS011;48624;49.812;8.562;2023-09-19T00:54:35;1.85;;;1.30;;
62332;SDS011;48624;49.812;8.562;2023-09-19T00:57:01;1.55;;;1.13;;
62332;SDS011;48624;49.812;8.562;2023-09-19T00:59:27;1.85;;;1.13;;
62332;SDS011;48624;49.812;8.562;2023-09-19T01:01:53;3.30;;;1.35;;
62332;SDS011;48624;49.812;8.562;2023-09-19T01:04:20;3.65;;;1.60;;
62332;SDS011;48624;49.812;8.562;2023-09-19T01:06:46;2.95;;;1.25;;
62332;SDS011;48624;49.812;8.562;2023-09-19T01:09:11;4.78;;;1.60;;
62332;SDS011;48624;49.812;8.562;2023-09-19T01:11:43;3.63;;;1.60;;
62332;SDS011;48624;49.812;8.562;2023-09-19T01:14:19;1.52;;;1.05;;
62332;SDS011;48624;49.812;8.562;2023-09-19T01:17:00;4.70;;;1.73;;
62332;SDS011;48624;49.812;8.562;2023-09-19T01:19:56;3.90;;;1.20;;
62332;SDS011;48624;49.812;8.562;2023-09-19T01:23:05;5.95;;;1.85;;
62332;SDS011;48624;49.812;8.562;2023-09-19T01:28:34;3.30;;;1.00;;
62332;SDS011;48624;49.812;8.562;2023-09-19T01:31:03;5.43;;;1.45;;
62332;SDS011;48624;49.812;8.562;2023-09-19T01:36:22;3.50;;;1.50;;
62332;SDS011;48624;49.812;8.562;2023-09-19T01:38:48;1.63;;;1.08;;
62332;SDS011;48624;49.812;8.562;2023-09-19T01:41:15;3.75;;;1.20;;
62332;SDS011;48624;49.812;8.562;2023-09-19T01:43:46;4.07;;;1.48;;
62332;SDS011;48624;49.812;8.562;2023-09-19T01:46:15;2.67;;;1.17;;
62332;SDS011;48624;49.812;8.562;2023-09-19T01:51:33;3.53;;;1.48;;
62332;SDS011;48624;49.812;8.562;2023-09-19T01:54:16;2.50;;;1.42;;
62332;SDS011;48624;49.812;8.562;2023-09-19T01:59:13;2.00;;;1.25;;
62332;SDS011;48624;49.812;8.562;2023-09-19T02:01:41;5.95;;;1.45;;
62332;SDS011;48624;49.812;8.562;2023-09-19T02:04:09;2.70;;;1.30;;
62332;SDS011;48624;49.812;8.562;2023-09-19T02:06:35;5.47;;;1.95;;
62332;SDS011;48624;49.812;8.562;2023-09-19T02:09:04;3.60;;;1.70;;
62332;SDS011;48624;49.812;8.562;2023-09-19T02:11:29;2.83;;;1.27;;
62332;SDS011;48624;49.812;8.562;2023-09-19T02:13:54;2.13;;;1.40;;
62332;SDS011;48624;49.812;8.562;2023-09-19T02:16:20;3.65;;;1.20;;
62332;SDS011;48624;49.812;8.562;2023-09-19T02:18:49;2.92;;;1.38;;
62332;SDS011;48624;49.812;8.562;2023-09-19T02:21:15;2.83;;;1.70;;
62332;SDS011;48624;49.812;8.562;2023-09-19T02:23:40;7.15;;;1.55;;
62332;SDS011;48624;49.812;8.562;2023-09-19T02:26:06;2.08;;;1.50;;
62332;SDS011;48624;49.812;8.562;2023-09-19T02:28:31;3.03;;;2.00;;
62332;SDS011;48624;49.812;8.562;2023-09-19T02:30:57;4.40;;;2.03;;
62332;SDS011;48624;49.812;8.562;2023-09-19T02:33:24;3.70;;;1.85;;
62332;SDS011;48624;49.812;8.562;2023-09-19T02:35:50;4.95;;;1.50;;
62332;SDS011;48624;49.812;8.562;2023-09-19T02:38:22;2.72;;;1.50;;
62332;SDS011;48624;49.812;8.562;2023-09-19T02:40:49;2.20;;;1.70;;
62332;SDS011;48624;49.812;8.562;2023-09-19T02:43:15;3.38;;;1.60;;
62332;SDS011;48624;49.812;8.562;2023-09-19T02:45:40;4.07;;;1.88;;
62332;SDS011;48624;49.812;8.562;2023-09-19T02:48:06;3.28;;;1.45;;
62332;SDS011;48624;49.812;8.562;2023-09-19T02:50:32;6.40;;;1.73;;
62332;SDS011;48624;49.812;8.562;2023-09-19T02:52:59;5.75;;;2.78;;
62332;SDS011;48624;49.812;8.562;2023-09-19T02:55:24;4.35;;;2.30;;
62332;SDS011;48624;49.812;8.562;2023-09-19T02:57:50;2.88;;;1.75;;
62332;SDS011;48624;49.812;8.562;2023-09-19T03:00:19;2.08;;;1.65;;
62332;SDS011;48624;49.812;8.562;2023-09-19T03:02:49;3.85;;;1.98;;
62332;SDS011;48624;49.812;8.562;2023-09-19T03:05:20;3.00;;;2.17;;
62332;SDS011;48624;49.812;8.562;2023-09-19T03:07:48;5.80;;;2.78;;
62332;SDS011;48624;49.812;8.562;2023-09-19T03:10:16;6.38;;;2.15;;
62332;SDS011;48624;49.812;8.562;2023-09-19T03:12:42;3.92;;;2.20;;
62332;SDS011;48624;49.812;8.562;2023-09-19T03:15:08;7.50;;;2.65;;
62332;SDS011;48624;49.812;8.562;2023-09-19T03:17:33;5.03;;;2.25;;
62332;SDS011;48624;49.812;8.562;2023-09-19T03:19:59;3.20;;;2.08;;
62332;SDS011;48624;49.812;8.562;2023-09-19T03:22:26;5.40;;;2.60;;
62332;SDS011;48624;49.812;8.562;2023-09-19T03:24:52;4.72;;;2.03;;
62332;SDS011;48624;49.812;8.562;2023-09-19T03:27:19;5.25;;;3.15;;
62332;SDS011;48624;49.812;8.562;2023-09-19T03:29:45;5.88;;;2.20;;
62332;SDS011;48624;49.812;8.562;2023-09-19T03:32:11;3.97;;;2.72;;
62332;SDS011;48624;49.812;8.562;2023-09-19T03:34:37;3.28;;;2.50;;
62332;SDS011;48624;49.812;8.562;2023-09-19T03:37:08;5.78;;;2.22;;
62332;SDS011;48624;49.812;8.562;2023-09-19T03:39:33;5.93;;;2.83;;
62332;SDS011;48624;49.812;8.562;2023-09-19T03:41:59;4.53;;;2.88;;
62332;SDS011;48624;49.812;8.562;2023-09-19T03:44:24;6.97;;;3.15;;
62332;SDS011;48624;49.812;8.562;2023-09-19T03:46:49;5.28;;;3.17;;
62332;SDS011;48624;49.812;8.562;2023-09-19T03:49:15;4.45;;;2.72;;
62332;SDS011;48624;49.812;8.562;2023-09-19T03:51:40;3.08;;;2.60;;
62332;SDS011;48624;49.812;8.562;2023-09-19T03:54:06;7.07;;;3.30;;
62332;SDS011;48624;49.812;8.562;2023-09-19T03:56:32;4.47;;;3.05;;
62332;SDS011;48624;49.812;8.562;2023-09-19T03:58:58;4.63;;;3.30;;
62332;SDS011;48624;49.812;8.562;2023-09-19T04:01:23;4.32;;;2.03;;
62332;SDS011;48624;49.812;8.562;2023-09-19T04:03:48;4.53;;;2.53;;
62332;SDS011;48624;49.812;8.562;2023-09-19T04:06:16;5.55;;;3.10;;
62332;SDS011;48624;49.812;8.562;2023-09-19T04:08:42;3.90;;;2.55;;
62332;SDS011;48624;49.812;8.562;2023-09-19T04:11:09;5.85;;;2.75;;
62332;SDS011;48624;49.812;8.562;2023-09-19T04:13:34;6.95;;;2.80;;
62332;SDS011;48624;49.812;8.562;2023-09-19T04:16:00;4.40;;;3.13;;
62332;SDS011;48624;49.812;8.562;2023-09-19T04:18:25;6.28;;;2.80;;
62332;SDS011;48624;49.812;8.562;2023-09-19T04:20:51;7.53;;;3.50;;
62332;SDS011;48624;49.812;8.562;2023-09-19T04:23:16;4.60;;;3.30;;
62332;SDS011;48624;49.812;8.562;2023-09-19T04:25:42;5.05;;;3.08;;
62332;SDS011;48624;49.812;8.562;2023-09-19T04:28:08;5.43;;;3.85;;
62332;SDS011;48624;49.812;8.562;2023-09-19T04:30:36;6.05;;;3.38;;
62332;SDS011;48624;49.812;8.562;2023-09-19T04:33:01;4.88;;;3.75;;
62332;SDS011;48624;49.812;8.562;2023-09-19T04:35:27;5.50;;;4.88;;
62332;SDS011;48624;49.812;8.562;2023-09-19T04:37:56;9.18;;;3.78;;
62332;SDS011;48624;49.812;8.562;2023-09-19T04:40:22;7.97;;;5.25;;
62332;SDS011;48624;49.812;8.562;2023-09-19T04:42:58;7.07;;;5.20;;
62332;SDS011;48624;49.812;8.562;2023-09-19T04:45:24;7.38;;;5.40;;
62332;SDS011;48624;49.812;8.562;2023-09-19T04:47:51;6.10;;;5.25;;
62332;SDS011;48624;49.812;8.562;2023-09-19T04:50:16;9.57;;;4.95;;
62332;SDS011;48624;49.812;8.562;2023-09-19T04:52:42;6.15;;;4.95;;
62332;SDS011;48624;49.812;8.562;2023-09-19T04:55:12;9.23;;;5.55;;
62332;SDS011;48624;49.812;8.562;2023-09-19T04:57:44;7.32;;;4.90;;
62332;SDS011;48624;49.812;8.562;2023-09-19T05:00:14;5.65;;;4.30;;
62332;SDS011;48624;49.812;8.562;2023-09-19T05:02:41;7.07;;;4.85;;
62332;SDS011;48624;49.812;8.562;2023-09-19T05:05:07;5.93;;;4.90;;
62332;SDS011;48624;49.812;8.562;2023-09-19T05:07:35;9.73;;;4.60;;
62332;SDS011;48624;49.812;8.562;2023-09-19T05:10:01;12.02;;;4.97;;
62332;SDS011;48624;49.812;8.562;2023-09-19T05:12:30;5.50;;;4.35;;
62332;SDS011;48624;49.812;8.562;2023-09-19T05:14:56;7.18;;;4.65;;
62332;SDS011;48624;49.812;8.562;2023-09-19T05:17:21;7.95;;;4.55;;
62332;SDS011;48624;49.812;8.562;2023-09-19T05:19:46;7.43;;;4.10;;
62332;SDS011;48624;49.812;8.562;2023-09-19T05:22:12;6.82;;;4.40;;
62332;SDS011;48624;49.812;8.562;2023-09-19T05:24:37;6.50;;;4.00;;
62332;SDS011;48624;49.812;8.562;2023-09-19T05:27:04;5.20;;;3.95;;
62332;SDS011;48624;49.812;8.562;2023-09-19T05:29:29;7.82;;;4.82;;
62332;SDS011;48624;49.812;8.562;2023-09-19T05:31:55;6.32;;;4.30;;
62332;SDS011;48624;49.812;8.562;2023-09-19T05:34:21;7.75;;;4.50;;
62332;SDS011;48624;49.812;8.562;2023-09-19T05:36:47;5.15;;;3.28;;
62332;SDS011;48624;49.812;8.562;2023-09-19T05:39:13;7.22;;;4.68;;
62332;SDS011;48624;49.812;8.562;2023-09-19T05:41:39;4.45;;;3.00;;
62332;SDS011;48624;49.812;8.562;2023-09-19T05:44:05;6.90;;;3.47;;
62332;SDS011;48624;49.812;8.562;2023-09-19T05:46:31;4.95;;;3.38;;
62332;SDS011;48624;49.812;8.562;2023-09-19T05:48:57;7.22;;;4.00;;
62332;SDS011;48624;49.812;8.562;2023-09-19T05:51:22;7.70;;;3.90;;
62332;SDS011;48624;49.812;8.562;2023-09-19T05:53:48;6.72;;;3.53;;
62332;SDS011;48624;49.812;8.562;2023-09-19T05:56:13;6.10;;;3.50;;
62332;SDS011;48624;49.812;8.562;2023-09-19T05:58:40;6.32;;;3.40;;
62332;SDS011;48624;49.812;8.562;2023-09-19T06:01:09;9.90;;;3.70;;
62332;SDS011;48624;49.812;8.562;2023-09-19T06:03:34;6.05;;;3.53;;
62332;SDS011;48624;49.812;8.562;2023-09-19T06:06:00;5.00;;;3.30;;
62332;SDS011;48624;49.812;8.562;2023-09-19T06:08:31;8.32;;;3.15;;
62332;SDS011;48624;49.812;8.562;2023-09-19T06:10:56;10.15;;;3.83;;
62332;SDS011;48624;49.812;8.562;2023-09-19T06:13:22;5.50;;;2.95;;
62332;SDS011;48624;49.812;8.562;2023-09-19T06:15:48;5.68;;;3.08;;
62332;SDS011;48624;49.812;8.562;2023-09-19T06:18:14;6.72;;;2.95;;
62332;SDS011;48624;49.812;8.562;2023-09-19T06:20:45;6.03;;;2.60;;
62332;SDS011;48624;49.812;8.562;2023-09-19T06:23:12;4.10;;;2.67;;
62332;SDS011;48624;49.812;8.562;2023-09-19T06:25:37;4.75;;;3.03;;
62332;SDS011;48624;49.812;8.562;2023-09-19T06:28:03;9.10;;;3.05;;
62332;SDS011;48624;49.812;8.562;2023-09-19T06:30:30;7.68;;;3.45;;
62332;SDS011;48624;49.812;8.562;2023-09-19T06:32:59;6.75;;;3.17;;
62332;SDS011;48624;49.812;8.562;2023-09-19T06:35:25;6.15;;;3.10;;
62332;SDS011;48624;49.812;8.562;2023-09-19T06:37:53;7.45;;;3.85;;
62332;SDS011;48624;49.812;8.562;2023-09-19T06:40:18;4.97;;;2.55;;
62332;SDS011;48624;49.812;8.562;2023-09-19T06:42:44;7.22;;;2.45;;
62332;SDS011;48624;49.812;8.562;2023-09-19T06:45:14;7.43;;;3.10;;
62332;SDS011;48624;49.812;8.562;2023-09-19T06:47:47;6.50;;;3.30;;
62332;SDS011;48624;49.812;8.562;2023-09-19T06:50:19;4.80;;;3.00;;
62332;SDS011;48624;49.812;8.562;2023-09-19T06:52:47;5.53;;;2.85;;
62332;SDS011;48624;49.812;8.562;2023-09-19T06:55:15;4.88;;;2.78;;
62332;SDS011;48624;49.812;8.562;2023-09-19T06:57:41;4.13;;;2.50;;
62332;SDS011;48624;49.812;8.562;2023-09-19T07:00:08;9.15;;;2.85;;
62332;SDS011;48624;49.812;8.562;2023-09-19T07:02:41;5.18;;;2.15;;
62332;SDS011;48624;49.812;8.562;2023-09-19T07:05:06;6.07;;;2.42;;
62332;SDS011;48624;49.812;8.562;2023-09-19T07:07:32;3.50;;;2.03;;
62332;SDS011;48624;49.812;8.562;2023-09-19T07:10:00;4.65;;;1.60;;
62332;SDS011;48624;49.812;8.562;2023-09-19T07:12:26;5.85;;;2.58;;
62332;SDS011;48624;49.812;8.562;2023-09-19T07:14:51;3.65;;;1.80;;
62332;SDS011;48624;49.812;8.562;2023-09-19T07:17:16;2.65;;;1.77;;
62332;SDS011;48624;49.812;8.562;2023-09-19T07:19:43;3.00;;;1.85;;
62332;SDS011;48624;49.812;8.562;2023-09-19T07:22:09;5.60;;;2.40;;
62332;SDS011;48624;49.812;8.562;2023-09-19T07:24:34;6.78;;;2.72;;
62332;SDS011;48624;49.812;8.562;2023-09-19T07:27:01;3.97;;;1.50;;
62332;SDS011;48624;49.812;8.562;2023-09-19T07:29:27;4.63;;;2.30;;
62332;SDS011;48624;49.812;8.562;2023-09-19T07:31:53;4.97;;;2.33;;
62332;SDS011;48624;49.812;8.562;2023-09-19T07:34:18;4.15;;;2.03;;
62332;SDS011;48624;49.812;8.562;2023-09-19T07:36:45;5.60;;;2.00;;
62332;SDS011;48624;49.812;8.562;2023-09-19T07:39:12;5.40;;;2.05;;
62332;SDS011;48624;49.812;8.562;2023-09-19T07:41:37;4.80;;;1.67;;
62332;SDS011;48624;49.812;8.562;2023-09-19T07:44:02;4.50;;;2.00;;
62332;SDS011;48624;49.812;8.562;2023-09-19T07:46:28;7.43;;;2.20;;
62332;SDS011;48624;49.812;8.562;2023-09-19T07:48:55;3.72;;;2.47;;
62332;SDS011;48624;49.812;8.562;2023-09-19T07:51:21;3.38;;;1.70;;
62332;SDS011;48624;49.812;8.562;2023-09-19T07:53:46;6.38;;;2.35;;
62332;SDS011;48624;49.812;8.562;2023-09-19T07:56:13;5.35;;;1.60;;
62332;SDS011;48624;49.812;8.562;2023-09-19T07:58:39;6.18;;;2.15;;
62332;SDS011;48624;49.812;8.562;2023-09-19T08:01:06;3.58;;;2.17;;
62332;SDS011;48624;49.812;8.562;2023-09-19T08:03:32;3.95;;;1.55;;
62332;SDS011;48624;49.812;8.562;2023-09-19T08:05:59;6.18;;;2.17;;
62332;SDS011;48624;49.812;8.562;2023-09-19T08:08:27;3.80;;;1.73;;
62332;SDS011;48624;49.812;8.562;2023-09-19T08:10:55;5.90;;;2.08;;
62332;SDS011;48624;49.812;8.562;2023-09-19T08:13:21;11.95;;;3.35;;
62332;SDS011;48624;49.812;8.562;2023-09-19T08:15:51;4.78;;;2.63;;
62332;SDS011;48624;49.812;8.562;2023-09-19T08:18:19;5.13;;;2.05;;
62332;SDS011;48624;49.812;8.562;2023-09-19T08:20:51;4.72;;;2.47;;
62332;SDS011;48624;49.812;8.562;2023-09-19T08:23:18;4.20;;;2.25;;
62332;SDS011;48624;49.812;8.562;2023-09-19T08:25:45;7.43;;;2.47;;
62332;SDS011;48624;49.812;8.562;2023-09-19T08:28:11;5.18;;;2.42;;
62332;SDS011;48624;49.812;8.562;2023-09-19T08:30:37;5.28;;;1.80;;
62332;SDS011;48624;49.812;8.562;2023-09-19T08:33:05;5.13;;;2.20;;
62332;SDS011;48624;49.812;8.562;2023-09-19T08:35:31;4.63;;;2.33;;
62332;SDS011;48624;49.812;8.562;2023-09-19T08:37:57;5.72;;;2.05;;
62332;SDS011;48624;49.812;8.562;2023-09-19T08:40:22;4.88;;;2.33;;
62332;SDS011;48624;49.812;8.562;2023-09-19T08:45:19;6.65;;;2.10;;
62332;SDS011;48624;49.812;8.562;2023-09-19T08:48:31;4.90;;;1.67;;
62332;SDS011;48624;49.812;8.562;2023-09-19T08:50:52;3.20;;;1.60;;
62332;SDS011;48624;49.812;8.562;2023-09-19T08:53:26;6.03;;;2.05;;
62332;SDS011;48624;49.812;8.562;2023-09-19T08:55:57;3.70;;;1.30;;
62332;SDS011;48624;49.812;8.562;2023-09-19T08:58:27;3.55;;;1.67;;
62332;SDS011;48624;49.812;8.562;2023-09-19T09:01:00;4.47;;;1.65;;
62332;SDS011;48624;49.812;8.562;2023-09-19T09:03:26;6.88;;;2.53;;
62332;SDS011;48624;49.812;8.562;2023-09-19T09:05:57;5.28;;;1.80;;
62332;SDS011;48624;49.812;8.562;2023-09-19T09:08:23;9.95;;;1.88;;
62332;SDS011;48624;49.812;8.562;2023-09-19T09:10:48;5.28;;;1.60;;
62332;SDS011;48624;49.812;8.562;2023-09-19T09:13:15;4.65;;;1.73;;
62332;SDS011;48624;49.812;8.562;2023-09-19T09:15:41;3.05;;;1.10;;
62332;SDS011;48624;49.812;8.562;2023-09-19T09:18:09;2.65;;;1.42;;
62332;SDS011;48624;49.812;8.562;2023-09-19T09:20:35;5.40;;;1.45;;
62332;SDS011;48624;49.812;8.562;2023-09-19T09:23:01;4.25;;;1.73;;
62332;SDS011;48624;49.812;8.562;2023-09-19T09:25:47;6.43;;;2.15;;
62332;SDS011;48624;49.812;8.562;2023-09-19T09:28:24;5.97;;;1.45;;
62332;SDS011;48624;49.812;8.562;2023-09-19T09:30:54;4.72;;;2.03;;
62332;SDS011;48624;49.812;8.562;2023-09-19T09:33:21;6.68;;;1.00;;
62332;SDS011;48624;49.812;8.562;2023-09-19T09:38:16;4.78;;;1.65;;
62332;SDS011;48624;49.812;8.562;2023-09-19T09:40:50;3.08;;;1.25;;
62332;SDS011;48624;49.812;8.562;2023-09-19T09:43:38;5.45;;;1.65;;
62332;SDS011;48624;49.812;8.562;2023-09-19T09:46:12;3.38;;;1.40;;
62332;SDS011;48624;49.812;8.562;2023-09-19T09:48:55;5.30;;;1.45;;
62332;SDS011;48624;49.812;8.562;2023-09-19T09:54:24;5.18;;;1.75;;
62332;SDS011;48624;49.812;8.562;2023-09-19T09:59:52;6.68;;;2.13;;
62332;SDS011;48624;49.812;8.562;2023-09-19T10:02:25;6.28;;;1.30;;
62332;SDS011;48624;49.812;8.562;2023-09-19T10:04:57;5.22;;;1.65;;
62332;SDS011;48624;49.812;8.562;2023-09-19T10:07:46;3.25;;;1.45;;
62332;SDS011;48624;49.812;8.562;2023-09-19T10:10:32;3.35;;;1.75;;
62332;SDS011;48624;49.812;8.562;2023-09-19T10:13:07;4.00;;;1.58;;
62332;SDS011;48624;49.812;8.562;2023-09-19T10:15:39;6.30;;;1.77;;
62332;SDS011;48624;49.812;8.562;2023-09-19T10:18:13;6.70;;;2.00;;
62332;SDS011;48624;49.812;8.562;2023-09-19T10:20:43;5.10;;;1.95;;
62332;SDS011;48624;49.812;8.562;2023-09-19T10:23:10;4.63;;;1.70;;
62332;SDS011;48624;49.812;8.562;2023-09-19T10:25:43;8.52;;;1.60;;
62332;SDS011;48624;49.812;8.562;2023-09-19T10:28:12;5.30;;;1.38;;
62332;SDS011;48624;49.812;8.562;2023-09-19T10:30:45;7.45;;;2.28;;
62332;SDS011;48624;49.812;8.562;2023-09-19T10:33:15;5.78;;;1.70;;
62332;SDS011;48624;49.812;8.562;2023-09-19T10:35:43;7.25;;;2.15;;
62332;SDS011;48624;49.812;8.562;2023-09-19T10:38:10;4.30;;;1.45;;
62332;SDS011;48624;49.812;8.562;2023-09-19T10:40:36;7.03;;;1.60;;
62332;SDS011;48624;49.812;8.562;2023-09-19T10:43:07;6.43;;;1.55;;
62332;SDS011;48624;49.812;8.562;2023-09-19T10:45:37;5.50;;;1.73;;
62332;SDS011;48624;49.812;8.562;2023-09-19T10:48:05;4.57;;;1.80;;
62332;SDS011;48624;49.812;8.562;2023-09-19T10:50:36;6.63;;;1.50;;
62332;SDS011;48624;49.812;8.562;2023-09-19T10:53:10;3.17;;;1.50;;
62332;SDS011;48624;49.812;8.562;2023-09-19T10:55:38;8.20;;;1.75;;
62332;SDS011;48624;49.812;8.562;2023-09-19T10:58:07;6.40;;;1.83;;
62332;SDS011;48624;49.812;8.562;2023-09-19T11:00:58;6.80;;;1.45;;
62332;SDS011;48624;49.812;8.562;2023-09-19T11:03:43;6.72;;;1.58;;
62332;SDS011;48624;49.812;8.562;2023-09-19T11:06:13;7.45;;;1.70;;
62332;SDS011;48624;49.812;8.562;2023-09-19T11:08:54;3.83;;;2.10;;
62332;SDS011;48624;49.812;8.562;2023-09-19T11:14:14;4.00;;;1.83;;
62332;SDS011;48624;49.812;8.562;2023-09-19T11:30:49;5.50;;;1.67;;
62332;SDS011;48624;49.812;8.562;2023-09-19T11:46:30;5.60;;;1.20;;
62332;SDS011;48624;49.812;8.562;2023-09-19T11:49:07;4.50;;;1.27;;
62332;SDS011;48624;49.812;8.562;2023-09-19T11:51:40;8.90;;;1.80;;
62332;SDS011;48624;49.812;8.562;2023-09-19T11:54:10;3.17;;;1.00;;
62332;SDS011;48624;49.812;8.562;2023-09-19T11:56:40;4.72;;;1.27;;
62332;SDS011;48624;49.812;8.562;2023-09-19T11:59:06;6.22;;;1.67;;
62332;SDS011;48624;49.812;8.562;2023-09-19T12:01:33;1.98;;;0.77;;
62332;SDS011;48624;49.812;8.562;2023-09-19T12:04:00;5.53;;;1.73;;
62332;SDS011;48624;49.812;8.562;2023-09-19T12:06:27;5.32;;;1.33;;
62332;SDS011;48624;49.812;8.562;2023-09-19T12:08:54;4.57;;;1.25;;
62332;SDS011;48624;49.812;8.562;2023-09-19T12:11:20;3.53;;;1.25;;
62332;SDS011;48624;49.812;8.562;2023-09-19T12:13:48;6.05;;;1.80;;
62332;SDS011;48624;49.812;8.562;2023-09-19T12:16:17;8.32;;;1.42;;
62332;SDS011;48624;49.812;8.562;2023-09-19T12:18:48;6.40;;;1.85;;
62332;SDS011;48624;49.812;8.562;2023-09-19T12:21:30;3.83;;;1.38;;
62332;SDS011;48624;49.812;8.562;2023-09-19T12:26:24;1.88;;;0.90;;
62332;SDS011;48624;49.812;8.562;2023-09-19T12:28:54;2.45;;;1.30;;
62332;SDS011;48624;49.812;8.562;2023-09-19T12:31:19;5.30;;;1.30;;
62332;SDS011;48624;49.812;8.562;2023-09-19T12:33:45;2.90;;;1.50;;
62332;SDS011;48624;49.812;8.562;2023-09-19T12:36:20;3.55;;;1.23;;
62332;SDS011;48624;49.812;8.562;2023-09-19T12:38:50;4.40;;;1.27;;
62332;SDS011;48624;49.812;8.562;2023-09-19T12:41:18;2.38;;;1.02;;
62332;SDS011;48624;49.812;8.562;2023-09-19T12:43:45;3.60;;;1.23;;
62332;SDS011;48624;49.812;8.562;2023-09-19T12:46:11;4.80;;;2.05;;
62332;SDS011;48624;49.812;8.562;2023-09-19T12:48:36;2.55;;;1.30;;
62332;SDS011;48624;49.812;8.562;2023-09-19T12:51:03;4.13;;;1.30;;
62332;SDS011;48624;49.812;8.562;2023-09-19T12:53:32;4.03;;;1.67;;
62332;SDS011;48624;49.812;8.562;2023-09-19T12:56:08;2.53;;;1.13;;
62332;SDS011;48624;49.812;8.562;2023-09-19T12:58:35;4.72;;;1.20;;
62332;SDS011;48624;49.812;8.562;2023-09-19T13:01:26;3.63;;;1.60;;
62332;SDS011;48624;49.812;8.562;2023-09-19T13:04:10;5.60;;;1.30;;
62332;SDS011;48624;49.812;8.562;2023-09-19T13:06:49;3.22;;;1.00;;
62332;SDS011;48624;49.812;8.562;2023-09-19T13:09:15;2.47;;;1.17;;
62332;SDS011;48624;49.812;8.562;2023-09-19T13:11:42;2.47;;;1.40;;
62332;SDS011;48624;49.812;8.562;2023-09-19T13:14:13;2.40;;;0.80;;
62332;SDS011;48624;49.812;8.562;2023-09-19T13:22:04;3.13;;;1.25;;
62332;SDS011;48624;49.812;8.562;2023-09-19T13:24:30;3.10;;;1.10;;
62332;SDS011;48624;49.812;8.562;2023-09-19T13:26:59;3.63;;;1.27;;
62332;SDS011;48624;49.812;8.562;2023-09-19T13:29:25;2.72;;;0.90;;
62332;SDS011;48624;49.812;8.562;2023-09-19T13:31:51;5.55;;;1.20;;
62332;SDS011;48624;49.812;8.562;2023-09-19T13:34:22;4.22;;;1.38;;
62332;SDS011;48624;49.812;8.562;2023-09-19T13:36:49;2.35;;;0.93;;
62332;SDS011;48624;49.812;8.562;2023-09-19T13:39:18;1.75;;;1.33;;
62332;SDS011;48624;49.812;8.562;2023-09-19T13:41:44;1.67;;;0.80;;
62332;SDS011;48624;49.812;8.562;2023-09-19T13:44:11;2.63;;;0.93;;
62332;SDS011;48624;49.812;8.562;2023-09-19T13:46:36;1.73;;;0.60;;
62332;SDS011;48624;49.812;8.562;2023-09-19T13:49:02;4.38;;;0.93;;
62332;SDS011;48624;49.812;8.562;2023-09-19T13:51:29;6.28;;;1.08;;
62332;SDS011;48624;49.812;8.562;2023-09-19T13:53:56;1.52;;;1.05;;
62332;SDS011;48624;49.812;8.562;2023-09-19T13:56:21;4.22;;;1.10;;
62332;SDS011;48624;49.812;8.562;2023-09-19T13:58:46;1.98;;;0.90;;
62332;SDS011;48624;49.812;8.562;2023-09-19T14:01:12;3.72;;;1.00;;
62332;SDS011;48624;49.812;8.562;2023-09-19T14:03:38;2.63;;;0.80;;
62332;SDS011;48624;49.812;8.562;2023-09-19T14:06:04;2.20;;;1.17;;
62332;SDS011;48624;49.812;8.562;2023-09-19T14:08:29;2.67;;;0.88;;
62332;SDS011;48624;49.812;8.562;2023-09-19T14:10:54;4.47;;;1.13;;
62332;SDS011;48624;49.812;8.562;2023-09-19T14:13:20;6.40;;;2.03;;
62332;SDS011;48624;49.812;8.562;2023-09-19T14:15:45;2.92;;;1.02;;
62332;SDS011;48624;49.812;8.562;2023-09-19T14:18:11;3.00;;;1.33;;
62332;SDS011;48624;49.812;8.562;2023-09-19T14:20:37;3.13;;;1.00;;
62332;SDS011;48624;49.812;8.562;2023-09-19T14:23:07;3.08;;;1.00;;
62332;SDS011;48624;49.812;8.562;2023-09-19T14:25:35;3.88;;;1.27;;
62332;SDS011;48624;49.812;8.562;2023-09-19T14:28:01;2.55;;;0.90;;
62332;SDS011;48624;49.812;8.562;2023-09-19T14:30:27;1.85;;;0.90;;
62332;SDS011;48624;49.812;8.562;2023-09-19T14:32:53;2.83;;;0.93;;
62332;SDS011;48624;49.812;8.562;2023-09-19T14:35:18;3.00;;;1.05;;
62332;SDS011;48624;49.812;8.562;2023-09-19T14:37:44;3.00;;;1.27;;
62332;SDS011;48624;49.812;8.562;2023-09-19T14:40:10;2.20;;;0.93;;
62332;SDS011;48624;49.812;8.562;2023-09-19T14:42:38;3.25;;;1.30;;
62332;SDS011;48624;49.812;8.562;2023-09-19T14:45:04;3.05;;;0.90;;
62332;SDS011;48624;49.812;8.562;2023-09-19T14:47:30;1.65;;;0.63;;
62332;SDS011;48624;49.812;8.562;2023-09-19T14:49:59;2.05;;;1.10;;
62332;SDS011;48624;49.812;8.562;2023-09-19T14:52:26;2.17;;;0.90;;
62332;SDS011;48624;49.812;8.562;2023-09-19T14:54:53;2.78;;;1.10;;
62332;SDS011;48624;49.812;8.562;2023-09-19T14:57:19;1.58;;;0.73;;
62332;SDS011;48624;49.812;8.562;2023-09-19T14:59:45;3.00;;;1.15;;
62332;SDS011;48624;49.812;8.562;2023-09-19T15:02:10;3.25;;;1.23;;
62332;SDS011;48624;49.812;8.562;2023-09-19T15:04:35;1.80;;;0.98;;
62332;SDS011;48624;49.812;8.562;2023-09-19T15:07:02;3.83;;;0.60;;
62332;SDS011;48624;49.812;8.562;2023-09-19T15:09:27;2.03;;;0.73;;
62332;SDS011;48624;49.812;8.562;2023-09-19T15:11:53;2.88;;;1.00;;
62332;SDS011;48624;49.812;8.562;2023-09-19T15:14:19;4.38;;;1.00;;
62332;SDS011;48624;49.812;8.562;2023-09-19T15:16:45;2.22;;;0.63;;
62332;SDS011;48624;49.812;8.562;2023-09-19T15:19:10;1.77;;;0.50;;
62332;SDS011;48624;49.812;8.562;2023-09-19T15:21:35;3.03;;;1.15;;
62332;SDS011;48624;49.812;8.562;2023-09-19T15:24:02;2.20;;;1.00;;
62332;SDS011;48624;49.812;8.562;2023-09-19T15:26:28;5.38;;;1.58;;
62332;SDS011;48624;49.812;8.562;2023-09-19T15:28:55;2.20;;;0.77;;
62332;SDS011;48624;49.812;8.562;2023-09-19T15:31:20;1.33;;;0.82;;
62332;SDS011;48624;49.812;8.562;2023-09-19T15:33:45;7.55;;;1.20;;
62332;SDS011;48624;49.812;8.562;2023-09-19T15:36:12;1.50;;;0.80;;
62332;SDS011;48624;49.812;8.562;2023-09-19T15:41:22;4.82;;;0.93;;
62332;SDS011;48624;49.812;8.562;2023-09-19T15:43:48;2.67;;;0.60;;
62332;SDS011;48624;49.812;8.562;2023-09-19T15:46:14;1.85;;;0.70;;
62332;SDS011;48624;49.812;8.562;2023-09-19T15:48:40;4.30;;;1.10;;
62332;SDS011;48624;49.812;8.562;2023-09-19T15:51:05;3.45;;;0.98;;
62332;SDS011;48624;49.812;8.562;2023-09-19T15:53:37;3.17;;;1.08;;
62332;SDS011;48624;49.812;8.562;2023-09-19T15:56:09;3.03;;;0.85;;